sensor_id;sensor_type;location;lat;lon;timestamp;temperature;humidity
28725;DHT22;43472;48.980;9.646;2023-05-14T00:02:38;12.10;99.90
28725;DHT22;43472;48.980;9.646;2023-05-14T00:07:40;12.40;99.90
28725;DHT22;43472;48.980;9.646;2023-05-14T00:12:42;11.50;99.90
28725;DHT22;43472;48.980;9.646;2023-05-14T00:17:44;11.40;99.90
28725;DHT22;43472;48.980;9.646;2023-05-14T00:22:47;12.40;99.90
28725;DHT22;43472;48.980;9.646;2023-05-14T00:27:48;11.20;99.90
28725;DHT22;43472;48.980;9.646;2023-05-14T00:32:50;11.20;99.90
28725;DHT22;43472;48.980;9.646;2023-05-14T00:37:52;11.20;99.90
28725;DHT22;43472;48.980;9.646;2023-05-14T00:42:55;12.50;99.90
28725;DHT22;43472;48.980;9.646;2023-05-14T00:47:56;11.30;99.90
28725;DHT22;43472;48.980;9.646;2023-05-14T00:52:59;11.30;99.90
28725;DHT22;43472;48.980;9.646;2023-05-14T00:58:02;11.20;99.90
28725;DHT22;43472;48.980;9.646;2023-05-14T01:08:17;11.10;99.90
28725;DHT22;43472;48.980;9.646;2023-05-14T01:18:39;11.10;99.90
28725;DHT22;43472;48.980;9.646;2023-05-14T01:23:42;12.10;99.90
28725;DHT22;43472;48.980;9.646;2023-05-14T01:28:44;11.10;99.90
28725;DHT22;43472;48.980;9.646;2023-05-14T01:33:47;11.00;99.90
28725;DHT22;43472;48.980;9.646;2023-05-14T01:38:50;10.90;99.90
28725;DHT22;43472;48.980;9.646;2023-05-14T01:43:52;11.20;99.90
28725;DHT22;43472;48.980;9.646;2023-05-14T01:48:54;10.80;99.90
28725;DHT22;43472;48.980;9.646;2023-05-14T01:53:56;12.60;99.90
28725;DHT22;43472;48.980;9.646;2023-05-14T01:58:57;11.00;99.90
28725;DHT22;43472;48.980;9.646;2023-05-14T02:04:00;10.90;99.90
28725;DHT22;43472;48.980;9.646;2023-05-14T02:09:03;10.80;99.90
28725;DHT22;43472;48.980;9.646;2023-05-14T02:14:04;10.90;99.90
28725;DHT22;43472;48.980;9.646;2023-05-14T02:19:06;10.80;99.90
28725;DHT22;43472;48.980;9.646;2023-05-14T02:24:08;11.50;99.90
28725;DHT22;43472;48.980;9.646;2023-05-14T02:29:10;10.70;99.90
28725;DHT22;43472;48.980;9.646;2023-05-14T02:34:12;10.80;99.90
28725;DHT22;43472;48.980;9.646;2023-05-14T02:39:14;10.80;99.90
28725;DHT22;43472;48.980;9.646;2023-05-14T02:44:15;10.80;99.90
28725;DHT22;43472;48.980;9.646;2023-05-14T02:49:17;10.70;99.90
28725;DHT22;43472;48.980;9.646;2023-05-14T02:54:19;10.70;99.90
28725;DHT22;43472;48.980;9.646;2023-05-14T02:59:22;10.70;99.90
28725;DHT22;43472;48.980;9.646;2023-05-14T03:04:25;10.80;99.90
28725;DHT22;43472;48.980;9.646;2023-05-14T03:09:27;10.80;99.90
28725;DHT22;43472;48.980;9.646;2023-05-14T03:14:29;10.80;99.90
28725;DHT22;43472;48.980;9.646;2023-05-14T03:19:30;10.80;99.90
28725;DHT22;43472;48.980;9.646;2023-05-14T03:24:33;10.80;99.90
28725;DHT22;43472;48.980;9.646;2023-05-14T03:29:34;10.80;99.90
28725;DHT22;43472;48.980;9.646;2023-05-14T03:34:36;10.90;99.90
28725;DHT22;43472;48.980;9.646;2023-05-14T03:39:38;10.90;99.90
28725;DHT22;43472;48.980;9.646;2023-05-14T03:44:40;11.00;99.90
28725;DHT22;43472;48.980;9.646;2023-05-14T03:49:42;11.90;99.90
28725;DHT22;43472;48.980;9.646;2023-05-14T03:54:44;11.10;99.90
28725;DHT22;43472;48.980;9.646;2023-05-14T03:59:46;11.10;99.90
28725;DHT22;43472;48.980;9.646;2023-05-14T04:14:52;11.00;99.90
28725;DHT22;43472;48.980;9.646;2023-05-14T04:19:54;11.00;99.90
28725;DHT22;43472;48.980;9.646;2023-05-14T04:24:56;11.10;99.90
28725;DHT22;43472;48.980;9.646;2023-05-14T04:29:58;11.90;99.90
28725;DHT22;43472;48.980;9.646;2023-05-14T04:35:00;11.20;99.90
28725;DHT22;43472;48.980;9.646;2023-05-14T04:40:02;11.20;99.90
28725;DHT22;43472;48.980;9.646;2023-05-14T04:45:05;11.30;99.90
28725;DHT22;43472;48.980;9.646;2023-05-14T04:50:08;11.30;99.90
28725;DHT22;43472;48.980;9.646;2023-05-14T04:55:10;11.20;99.90
28725;DHT22;43472;48.980;9.646;2023-05-14T05:00:12;11.20;99.90
28725;DHT22;43472;48.980;9.646;2023-05-14T05:05:14;11.30;99.90
28725;DHT22;43472;48.980;9.646;2023-05-14T05:10:16;11.30;99.90
28725;DHT22;43472;48.980;9.646;2023-05-14T05:15:18;11.50;99.90
28725;DHT22;43472;48.980;9.646;2023-05-14T05:20:20;11.50;99.90
28725;DHT22;43472;48.980;9.646;2023-05-14T05:25:22;11.50;99.90
28725;DHT22;43472;48.980;9.646;2023-05-14T05:30:23;12.30;99.90
28725;DHT22;43472;48.980;9.646;2023-05-14T05:35:26;11.80;99.90
28725;DHT22;43472;48.980;9.646;2023-05-14T05:40:28;11.70;99.90
28725;DHT22;43472;48.980;9.646;2023-05-14T05:45:29;12.00;99.90
28725;DHT22;43472;48.980;9.646;2023-05-14T05:50:31;12.00;99.90
28725;DHT22;43472;48.980;9.646;2023-05-14T05:55:33;12.10;99.90
28725;DHT22;43472;48.980;9.646;2023-05-14T06:00:35;12.20;99.90
28725;DHT22;43472;48.980;9.646;2023-05-14T06:05:37;12.40;99.90
28725;DHT22;43472;48.980;9.646;2023-05-14T06:10:39;12.50;99.90
28725;DHT22;43472;48.980;9.646;2023-05-14T06:15:41;12.80;99.90
28725;DHT22;43472;48.980;9.646;2023-05-14T06:20:43;12.70;99.90
28725;DHT22;43472;48.980;9.646;2023-05-14T06:25:45;12.70;99.90
28725;DHT22;43472;48.980;9.646;2023-05-14T06:30:50;13.30;99.90
28725;DHT22;43472;48.980;9.646;2023-05-14T06:35:58;13.10;99.90
28725;DHT22;43472;48.980;9.646;2023-05-14T06:40:59;12.60;99.90
28725;DHT22;43472;48.980;9.646;2023-05-14T06:46:01;13.20;99.90
28725;DHT22;43472;48.980;9.646;2023-05-14T06:51:03;14.00;99.90
28725;DHT22;43472;48.980;9.646;2023-05-14T06:56:05;13.50;99.90
28725;DHT22;43472;48.980;9.646;2023-05-14T07:01:07;13.40;99.90
28725;DHT22;43472;48.980;9.646;2023-05-14T07:06:08;13.30;99.90
28725;DHT22;43472;48.980;9.646;2023-05-14T07:11:14;13.40;99.90
28725;DHT22;43472;48.980;9.646;2023-05-14T07:16:16;13.70;99.90
28725;DHT22;43472;48.980;9.646;2023-05-14T07:21:18;14.10;99.90
28725;DHT22;43472;48.980;9.646;2023-05-14T07:26:20;14.40;99.90
28725;DHT22;43472;48.980;9.646;2023-05-14T07:31:22;14.90;99.90
28725;DHT22;43472;48.980;9.646;2023-05-14T07:36:23;15.00;99.90
28725;DHT22;43472;48.980;9.646;2023-05-14T07:41:25;15.00;99.90
28725;DHT22;43472;48.980;9.646;2023-05-14T07:46:27;15.00;99.90
28725;DHT22;43472;48.980;9.646;2023-05-14T07:51:29;15.50;99.90
28725;DHT22;43472;48.980;9.646;2023-05-14T07:56:33;16.40;99.90
28725;DHT22;43472;48.980;9.646;2023-05-14T08:01:35;16.20;99.90
28725;DHT22;43472;48.980;9.646;2023-05-14T08:06:39;16.20;99.90
28725;DHT22;43472;48.980;9.646;2023-05-14T08:11:41;16.30;99.90
28725;DHT22;43472;48.980;9.646;2023-05-14T08:16:43;16.60;99.90
28725;DHT22;43472;48.980;9.646;2023-05-14T08:21:45;16.60;99.90
28725;DHT22;43472;48.980;9.646;2023-05-14T08:26:47;16.80;99.90
28725;DHT22;43472;48.980;9.646;2023-05-14T08:31:49;16.60;99.90
28725;DHT22;43472;48.980;9.646;2023-05-14T08:36:51;17.00;99.90
28725;DHT22;43472;48.980;9.646;2023-05-14T08:41:56;17.10;99.90
28725;DHT22;43472;48.980;9.646;2023-05-14T08:46:58;17.10;99.90
28725;DHT22;43472;48.980;9.646;2023-05-14T08:57:03;16.60;99.90
28725;DHT22;43472;48.980;9.646;2023-05-14T09:02:09;16.30;99.90
28725;DHT22;43472;48.980;9.646;2023-05-14T09:07:13;16.30;99.90
28725;DHT22;43472;48.980;9.646;2023-05-14T09:12:15;16.10;99.90
28725;DHT22;43472;48.980;9.646;2023-05-14T09:17:18;16.10;99.90
28725;DHT22;43472;48.980;9.646;2023-05-14T09:22:20;16.20;99.90
28725;DHT22;43472;48.980;9.646;2023-05-14T09:27:21;16.10;99.90
28725;DHT22;43472;48.980;9.646;2023-05-14T09:32:23;16.10;99.90
28725;DHT22;43472;48.980;9.646;2023-05-14T09:37:27;15.90;99.90
28725;DHT22;43472;48.980;9.646;2023-05-14T09:42:29;15.90;99.90
28725;DHT22;43472;48.980;9.646;2023-05-14T09:47:31;15.80;99.90
28725;DHT22;43472;48.980;9.646;2023-05-14T09:52:33;13.60;99.90
28725;DHT22;43472;48.980;9.646;2023-05-14T09:57:35;15.60;99.90
28725;DHT22;43472;48.980;9.646;2023-05-14T10:02:38;15.70;99.90
28725;DHT22;43472;48.980;9.646;2023-05-14T10:07:46;15.70;99.90
28725;DHT22;43472;48.980;9.646;2023-05-14T10:13:03;16.00;99.90
28725;DHT22;43472;48.980;9.646;2023-05-14T10:18:13;16.20;99.90
28725;DHT22;43472;48.980;9.646;2023-05-14T10:23:17;16.10;99.90
28725;DHT22;43472;48.980;9.646;2023-05-14T10:28:19;16.20;99.90
28725;DHT22;43472;48.980;9.646;2023-05-14T10:33:21;16.40;99.90
28725;DHT22;43472;48.980;9.646;2023-05-14T10:38:32;16.30;99.90
28725;DHT22;43472;48.980;9.646;2023-05-14T10:43:39;16.30;99.90
28725;DHT22;43472;48.980;9.646;2023-05-14T10:48:42;16.30;99.90
28725;DHT22;43472;48.980;9.646;2023-05-14T10:53:44;16.50;99.90
28725;DHT22;43472;48.980;9.646;2023-05-14T10:58:48;16.40;99.90
28725;DHT22;43472;48.980;9.646;2023-05-14T11:03:52;16.50;99.90
28725;DHT22;43472;48.980;9.646;2023-05-14T11:08:54;16.70;99.90
28725;DHT22;43472;48.980;9.646;2023-05-14T11:13:56;16.50;99.90
28725;DHT22;43472;48.980;9.646;2023-05-14T11:19:03;16.40;99.90
28725;DHT22;43472;48.980;9.646;2023-05-14T11:24:05;16.50;99.90
28725;DHT22;43472;48.980;9.646;2023-05-14T11:29:09;16.40;99.90
28725;DHT22;43472;48.980;9.646;2023-05-14T11:34:11;16.40;99.90
28725;DHT22;43472;48.980;9.646;2023-05-14T11:39:18;16.50;99.90
28725;DHT22;43472;48.980;9.646;2023-05-14T11:44:21;16.50;99.90
28725;DHT22;43472;48.980;9.646;2023-05-14T11:49:23;16.90;99.90
28725;DHT22;43472;48.980;9.646;2023-05-14T11:54:26;17.10;99.90
28725;DHT22;43472;48.980;9.646;2023-05-14T11:59:30;17.20;99.90
28725;DHT22;43472;48.980;9.646;2023-05-14T12:04:33;17.30;99.90
28725;DHT22;43472;48.980;9.646;2023-05-14T12:09:36;17.50;99.90
28725;DHT22;43472;48.980;9.646;2023-05-14T12:14:45;17.60;99.90
28725;DHT22;43472;48.980;9.646;2023-05-14T12:19:49;17.60;99.90
28725;DHT22;43472;48.980;9.646;2023-05-14T12:24:57;18.30;99.90
28725;DHT22;43472;48.980;9.646;2023-05-14T12:30:03;18.30;99.90
28725;DHT22;43472;48.980;9.646;2023-05-14T12:35:08;18.50;99.90
28725;DHT22;43472;48.980;9.646;2023-05-14T12:40:10;18.60;99.90
28725;DHT22;43472;48.980;9.646;2023-05-14T12:45:12;19.10;99.90
28725;DHT22;43472;48.980;9.646;2023-05-14T12:50:14;19.60;99.90
28725;DHT22;43472;48.980;9.646;2023-05-14T12:55:16;20.50;99.90
28725;DHT22;43472;48.980;9.646;2023-05-14T13:00:18;21.20;99.90
28725;DHT22;43472;48.980;9.646;2023-05-14T13:05:20;21.50;99.90
28725;DHT22;43472;48.980;9.646;2023-05-14T13:10:22;21.50;99.90
28725;DHT22;43472;48.980;9.646;2023-05-14T13:15:25;21.30;99.90
28725;DHT22;43472;48.980;9.646;2023-05-14T13:20:27;20.10;99.90
28725;DHT22;43472;48.980;9.646;2023-05-14T13:25:30;21.70;99.90
28725;DHT22;43472;48.980;9.646;2023-05-14T13:30:31;22.80;99.90
28725;DHT22;43472;48.980;9.646;2023-05-14T13:35:33;21.90;99.90
28725;DHT22;43472;48.980;9.646;2023-05-14T13:40:35;21.00;99.90
28725;DHT22;43472;48.980;9.646;2023-05-14T13:45:37;19.70;99.90
28725;DHT22;43472;48.980;9.646;2023-05-14T13:50:39;20.30;99.90
28725;DHT22;43472;48.980;9.646;2023-05-14T13:55:40;21.10;99.90
28725;DHT22;43472;48.980;9.646;2023-05-14T14:00:42;22.00;99.90
28725;DHT22;43472;48.980;9.646;2023-05-14T14:05:44;22.20;99.90
28725;DHT22;43472;48.980;9.646;2023-05-14T14:10:46;22.60;99.90
28725;DHT22;43472;48.980;9.646;2023-05-14T14:15:48;22.80;99.90
28725;DHT22;43472;48.980;9.646;2023-05-14T14:20:50;22.50;99.90
28725;DHT22;43472;48.980;9.646;2023-05-14T14:25:53;22.50;99.90
28725;DHT22;43472;48.980;9.646;2023-05-14T14:30:54;23.00;99.90
28725;DHT22;43472;48.980;9.646;2023-05-14T14:35:56;22.80;99.90
28725;DHT22;43472;48.980;9.646;2023-05-14T14:40:58;22.50;99.90
28725;DHT22;43472;48.980;9.646;2023-05-14T14:46:00;22.60;99.90
28725;DHT22;43472;48.980;9.646;2023-05-14T14:51:04;22.40;98.90
28725;DHT22;43472;48.980;9.646;2023-05-14T14:56:06;21.70;98.90
28725;DHT22;43472;48.980;9.646;2023-05-14T15:01:08;22.20;99.80
28725;DHT22;43472;48.980;9.646;2023-05-14T15:06:10;21.60;99.90
28725;DHT22;43472;48.980;9.646;2023-05-14T15:11:13;20.70;99.90
28725;DHT22;43472;48.980;9.646;2023-05-14T15:16:15;20.60;99.90
28725;DHT22;43472;48.980;9.646;2023-05-14T15:21:17;20.40;99.90
28725;DHT22;43472;48.980;9.646;2023-05-14T15:26:19;20.80;99.90
28725;DHT22;43472;48.980;9.646;2023-05-14T15:31:21;21.00;99.90
28725;DHT22;43472;48.980;9.646;2023-05-14T15:36:23;21.30;99.90
28725;DHT22;43472;48.980;9.646;2023-05-14T15:41:25;21.40;99.90
28725;DHT22;43472;48.980;9.646;2023-05-14T15:46:29;21.40;99.90
28725;DHT22;43472;48.980;9.646;2023-05-14T15:51:31;21.20;99.90
28725;DHT22;43472;48.980;9.646;2023-05-14T15:56:33;20.30;99.90
28725;DHT22;43472;48.980;9.646;2023-05-14T16:01:36;20.00;99.90
28725;DHT22;43472;48.980;9.646;2023-05-14T16:06:38;18.10;99.90
28725;DHT22;43472;48.980;9.646;2023-05-14T16:11:43;18.90;99.90
28725;DHT22;43472;48.980;9.646;2023-05-14T16:16:44;19.00;99.90
28725;DHT22;43472;48.980;9.646;2023-05-14T16:21:46;19.40;99.90
28725;DHT22;43472;48.980;9.646;2023-05-14T16:26:48;19.40;99.90
28725;DHT22;43472;48.980;9.646;2023-05-14T16:31:50;19.40;99.90
28725;DHT22;43472;48.980;9.646;2023-05-14T16:36:52;19.20;99.90
28725;DHT22;43472;48.980;9.646;2023-05-14T16:41:54;19.10;99.90
28725;DHT22;43472;48.980;9.646;2023-05-14T16:46:55;18.90;99.90
28725;DHT22;43472;48.980;9.646;2023-05-14T16:51:58;18.80;99.90
28725;DHT22;43472;48.980;9.646;2023-05-14T16:56:59;18.80;99.90
28725;DHT22;43472;48.980;9.646;2023-05-14T17:02:01;18.70;99.90
28725;DHT22;43472;48.980;9.646;2023-05-14T17:07:04;18.60;99.90
28725;DHT22;43472;48.980;9.646;2023-05-14T17:12:06;18.40;99.90
28725;DHT22;43472;48.980;9.646;2023-05-14T17:17:08;18.30;99.90
28725;DHT22;43472;48.980;9.646;2023-05-14T17:22:10;18.10;99.90
28725;DHT22;43472;48.980;9.646;2023-05-14T17:27:13;17.90;99.90
28725;DHT22;43472;48.980;9.646;2023-05-14T17:32:17;17.90;99.90
28725;DHT22;43472;48.980;9.646;2023-05-14T17:37:19;17.70;99.90
28725;DHT22;43472;48.980;9.646;2023-05-14T17:42:21;17.50;99.90
28725;DHT22;43472;48.980;9.646;2023-05-14T17:47:22;17.50;99.90
28725;DHT22;43472;48.980;9.646;2023-05-14T17:52:25;17.30;99.90
28725;DHT22;43472;48.980;9.646;2023-05-14T17:57:26;17.10;99.90
28725;DHT22;43472;48.980;9.646;2023-05-14T18:02:28;17.00;99.90
28725;DHT22;43472;48.980;9.646;2023-05-14T18:07:31;16.80;99.90
28725;DHT22;43472;48.980;9.646;2023-05-14T18:12:34;16.80;99.90
28725;DHT22;43472;48.980;9.646;2023-05-14T18:17:35;16.40;99.90
28725;DHT22;43472;48.980;9.646;2023-05-14T18:22:37;16.30;99.90
28725;DHT22;43472;48.980;9.646;2023-05-14T18:27:39;16.00;99.90
28725;DHT22;43472;48.980;9.646;2023-05-14T18:32:45;15.90;99.90
28725;DHT22;43472;48.980;9.646;2023-05-14T18:37:47;15.60;99.90
28725;DHT22;43472;48.980;9.646;2023-05-14T18:42:49;15.50;99.90
28725;DHT22;43472;48.980;9.646;2023-05-14T18:47:51;15.20;99.90
28725;DHT22;43472;48.980;9.646;2023-05-14T18:52:53;15.10;99.90
28725;DHT22;43472;48.980;9.646;2023-05-14T18:57:55;14.90;99.90
28725;DHT22;43472;48.980;9.646;2023-05-14T19:02:57;14.80;99.90
28725;DHT22;43472;48.980;9.646;2023-05-14T19:07:59;14.50;99.90
28725;DHT22;43472;48.980;9.646;2023-05-14T19:13:16;14.40;99.90
28725;DHT22;43472;48.980;9.646;2023-05-14T19:18:33;14.40;99.90
28725;DHT22;43472;48.980;9.646;2023-05-14T19:23:35;14.30;99.90
28725;DHT22;43472;48.980;9.646;2023-05-14T19:28:37;14.10;99.90
28725;DHT22;43472;48.980;9.646;2023-05-14T19:33:39;14.00;99.90
28725;DHT22;43472;48.980;9.646;2023-05-14T19:38:41;13.90;99.90
28725;DHT22;43472;48.980;9.646;2023-05-14T19:43:42;13.80;99.90
28725;DHT22;43472;48.980;9.646;2023-05-14T19:48:44;13.60;99.90
28725;DHT22;43472;48.980;9.646;2023-05-14T19:53:46;13.70;99.90
28725;DHT22;43472;48.980;9.646;2023-05-14T19:58:48;13.70;99.90
28725;DHT22;43472;48.980;9.646;2023-05-14T20:03:50;13.70;99.90
28725;DHT22;43472;48.980;9.646;2023-05-14T20:08:52;14.40;99.90
28725;DHT22;43472;48.980;9.646;2023-05-14T20:13:55;13.60;99.90
28725;DHT22;43472;48.980;9.646;2023-05-14T20:18:57;13.60;99.90
28725;DHT22;43472;48.980;9.646;2023-05-14T20:23:59;13.40;99.90
28725;DHT22;43472;48.980;9.646;2023-05-14T20:29:01;13.20;99.90
28725;DHT22;43472;48.980;9.646;2023-05-14T20:34:03;13.60;99.90
28725;DHT22;43472;48.980;9.646;2023-05-14T20:39:05;13.10;99.90
28725;DHT22;43472;48.980;9.646;2023-05-14T20:44:07;13.70;99.90
28725;DHT22;43472;48.980;9.646;2023-05-14T20:49:08;12.90;99.90
28725;DHT22;43472;48.980;9.646;2023-05-14T20:54:10;13.50;99.90
28725;DHT22;43472;48.980;9.646;2023-05-14T20:59:12;12.80;99.90
28725;DHT22;43472;48.980;9.646;2023-05-14T21:04:14;12.80;99.90
28725;DHT22;43472;48.980;9.646;2023-05-14T21:09:16;12.70;99.90
28725;DHT22;43472;48.980;9.646;2023-05-14T21:14:18;12.60;99.90
28725;DHT22;43472;48.980;9.646;2023-05-14T21:19:21;12.50;99.90
28725;DHT22;43472;48.980;9.646;2023-05-14T21:24:23;12.40;99.90
28725;DHT22;43472;48.980;9.646;2023-05-14T21:29:25;12.40;99.90
28725;DHT22;43472;48.980;9.646;2023-05-14T21:34:26;12.40;99.90
28725;DHT22;43472;48.980;9.646;2023-05-14T21:39:32;12.40;99.90
28725;DHT22;43472;48.980;9.646;2023-05-14T21:44:34;12.50;99.90
28725;DHT22;43472;48.980;9.646;2023-05-14T21:49:35;12.50;99.90
28725;DHT22;43472;48.980;9.646;2023-05-14T21:54:37;12.50;99.90
28725;DHT22;43472;48.980;9.646;2023-05-14T21:59:39;14.70;99.90
28725;DHT22;43472;48.980;9.646;2023-05-14T22:04:41;12.30;99.90
28725;DHT22;43472;48.980;9.646;2023-05-14T22:09:43;13.60;99.90
28725;DHT22;43472;48.980;9.646;2023-05-14T22:14:45;12.60;99.90
28725;DHT22;43472;48.980;9.646;2023-05-14T22:19:47;12.60;99.90
28725;DHT22;43472;48.980;9.646;2023-05-14T22:24:49;12.60;99.90
28725;DHT22;43472;48.980;9.646;2023-05-14T22:29:51;12.50;99.90
28725;DHT22;43472;48.980;9.646;2023-05-14T22:34:53;12.50;99.90
28725;DHT22;43472;48.980;9.646;2023-05-14T22:39:54;12.40;99.90
28725;DHT22;43472;48.980;9.646;2023-05-14T22:44:56;12.20;99.90
28725;DHT22;43472;48.980;9.646;2023-05-14T22:49:58;12.20;99.90
28725;DHT22;43472;48.980;9.646;2023-05-14T22:55:00;12.20;99.90
28725;DHT22;43472;48.980;9.646;2023-05-14T23:00:02;12.20;99.90
28725;DHT22;43472;48.980;9.646;2023-05-14T23:05:07;12.30;99.90
28725;DHT22;43472;48.980;9.646;2023-05-14T23:10:10;12.20;99.90
28725;DHT22;43472;48.980;9.646;2023-05-14T23:15:12;12.10;99.90
28725;DHT22;43472;48.980;9.646;2023-05-14T23:20:13;12.10;99.90
28725;DHT22;43472;48.980;9.646;2023-05-14T23:25:15;11.80;99.90
28725;DHT22;43472;48.980;9.646;2023-05-14T23:30:17;11.80;99.90
28725;DHT22;43472;48.980;9.646;2023-05-14T23:35:19;11.70;99.90
28725;DHT22;43472;48.980;9.646;2023-05-14T23:40:20;12.90;99.90
28725;DHT22;43472;48.980;9.646;2023-05-14T23:45:22;11.50;99.90
28725;DHT22;43472;48.980;9.646;2023-05-14T23:50:24;12.10;99.90
28725;DHT22;43472;48.980;9.646;2023-05-14T23:55:26;11.50;99.90
